Time;durP1;ratioP1;P1;durP2;ratioP2;P2;SDS_P1;SDS_P2;PMS_P1;PMS_P2;Temp;Humidity;BMP_temperature;BMP_pressure;BME280_temperature;BME280_humidity;BME280_pressure;Samples;Min_cycle;Max_cycle;Signal;HPM_P1;HPM_P2
2022/04/23 00:00:51;;;;;;;1.33;1.23;;;17.20;64.90;;;;;;5164354;28;20206;-65
2022/04/23 00:03:43;;;;;;;1.83;1.47;;;17.20;64.90;;;;;;5161779;28;20274;-65
2022/04/23 00:06:36;;;;;;;1.50;1.30;;;17.20;65.00;;;;;;5163459;28;20218;-65
2022/04/23 00:09:28;;;;;;;2.30;1.60;;;17.20;65.00;;;;;;5163803;28;20680;-65
2022/04/23 00:12:23;;;;;;;1.30;1.20;;;17.20;65.00;;;;;;5163432;28;20779;-65
2022/04/23 00:15:15;;;;;;;1.40;1.30;;;17.20;64.90;;;;;;5163998;28;20580;-65
2022/04/23 00:18:08;;;;;;;1.50;1.40;;;17.20;64.90;;;;;;5164246;28;20728;-65
2022/04/23 00:21:00;;;;;;;1.37;1.27;;;17.20;65.00;;;;;;5163673;28;20195;-65
2022/04/23 00:23:52;;;;;;;1.60;1.50;;;17.20;65.00;;;;;;5163689;28;20293;-65
2022/04/23 00:26:45;;;;;;;1.30;1.20;;;17.20;64.90;;;;;;5163302;28;20361;-65
2022/04/23 00:29:39;;;;;;;1.43;1.30;;;17.20;64.90;;;;;;5163403;28;20199;-65
2022/04/23 00:32:32;;;;;;;1.70;1.50;;;17.20;64.90;;;;;;5164256;28;20562;-65
2022/04/23 00:35:24;;;;;;;1.60;1.50;;;17.20;64.90;;;;;;5164097;28;20191;-65
2022/04/23 00:38:16;;;;;;;1.40;1.30;;;17.20;64.80;;;;;;5163611;28;20274;-65
2022/04/23 00:41:43;;;;;;;1.20;1.10;;;17.20;64.80;;;;;;5163261;28;20202;-65
2022/04/23 00:44:21;;;;;;;1.40;1.30;;;17.20;65.50;;;;;;5163863;28;20219;-65
2022/04/23 00:47:14;;;;;;;1.50;1.40;;;17.20;64.90;;;;;;5163706;28;20223;-65
2022/04/23 00:50:07;;;;;;;1.40;1.30;;;17.20;64.80;;;;;;5164506;28;20203;-65
2022/04/23 00:53:02;;;;;;;1.60;1.50;;;17.20;64.90;;;;;;5161161;28;20257;-65
2022/04/23 00:55:55;;;;;;;1.53;1.43;;;17.20;64.90;;;;;;5164477;28;20199;-65
2022/04/23 00:58:47;;;;;;;2.07;1.30;;;17.20;64.80;;;;;;5162912;28;20199;-65
2022/04/23 01:01:42;;;;;;;1.37;1.27;;;17.20;64.80;;;;;;5144845;28;20200;-65
2022/04/23 01:04:36;;;;;;;1.43;1.33;;;17.20;64.80;;;;;;5175685;28;20754;-65
2022/04/23 01:07:29;;;;;;;1.50;1.33;;;17.20;64.80;;;;;;5162094;28;20212;-65
2022/04/23 01:10:21;;;;;;;1.27;1.17;;;17.20;64.70;;;;;;5163336;28;20657;-65
2022/04/23 01:13:14;;;;;;;1.60;1.50;;;17.20;64.80;;;;;;5162773;28;20219;-65
2022/04/23 01:16:08;;;;;;;1.50;1.40;;;17.20;64.80;;;;;;5162546;28;20254;-65
2022/04/23 01:19:00;;;;;;;1.40;1.30;;;17.20;64.80;;;;;;5162490;28;20688;-66
2022/04/23 01:21:55;;;;;;;1.30;1.20;;;17.20;64.80;;;;;;5161837;28;20785;-65
2022/04/23 01:24:50;;;;;;;1.70;1.60;;;17.20;64.80;;;;;;5163003;28;20716;-65
2022/04/23 01:27:45;;;;;;;1.47;1.33;;;17.20;64.80;;;;;;5162779;28;20597;-65
2022/04/23 01:30:37;;;;;;;1.47;1.37;;;17.20;64.80;;;;;;5162969;28;20191;-65
2022/04/23 01:33:30;;;;;;;1.97;1.60;;;17.20;64.80;;;;;;5161714;28;20305;-65
2022/04/23 01:36:22;;;;;;;1.50;1.33;;;17.20;64.80;;;;;;5163367;28;20633;-65
2022/04/23 01:39:15;;;;;;;1.60;1.50;;;17.20;64.80;;;;;;5162326;28;20278;-65
2022/04/23 01:42:08;;;;;;;1.00;1.00;;;17.20;64.80;;;;;;5161337;28;20278;-65
2022/04/23 01:45:00;;;;;;;1.73;1.50;;;17.20;65.40;;;;;;5162786;28;20696;-64
2022/04/23 01:47:52;;;;;;;1.43;1.33;;;17.20;64.80;;;;;;5163824;28;20301;-64
2022/04/23 01:50:44;;;;;;;1.50;1.40;;;17.20;64.80;;;;;;5163922;28;20258;-65
2022/04/23 01:53:36;;;;;;;1.63;1.53;;;17.20;64.70;;;;;;5162840;28;20933;-65
2022/04/23 01:56:29;;;;;;;1.40;1.30;;;17.20;64.70;;;;;;5163232;28;20855;-65
2022/04/23 01:59:22;;;;;;;1.60;1.50;;;17.20;64.70;;;;;;5162655;28;20195;-65
2022/04/23 02:02:14;;;;;;;1.53;1.43;;;17.20;64.80;;;;;;5155559;28;20195;-65
2022/04/23 02:05:07;;;;;;;1.70;1.60;;;17.20;64.70;;;;;;5161120;28;20301;-65
2022/04/23 02:07:59;;;;;;;1.60;1.50;;;17.20;64.70;;;;;;5161898;28;20203;-65
2022/04/23 02:10:52;;;;;;;2.03;1.83;;;17.20;65.30;;;;;;5162507;28;20677;-65
2022/04/23 02:13:46;;;;;;;1.83;1.73;;;17.20;64.70;;;;;;5162569;28;20265;-65
2022/04/23 02:16:39;;;;;;;1.77;1.50;;;17.20;64.80;;;;;;5162637;28;20200;-65
2022/04/23 02:19:32;;;;;;;1.63;1.50;;;17.20;64.60;;;;;;5166045;28;20274;-65
2022/04/23 02:22:24;;;;;;;1.63;1.53;;;17.20;64.70;;;;;;5165976;28;20192;-65
2022/04/23 02:25:16;;;;;;;1.80;1.60;;;17.20;64.70;;;;;;5166920;28;20310;-65
2022/04/23 02:28:08;;;;;;;1.70;1.40;;;17.20;64.70;;;;;;5165351;28;20216;-65
2022/04/23 02:31:02;;;;;;;1.37;1.27;;;17.20;64.60;;;;;;5165816;28;20206;-65
2022/04/23 02:33:54;;;;;;;1.87;1.43;;;17.20;64.60;;;;;;5165236;28;20301;-65
2022/04/23 02:36:47;;;;;;;1.33;1.23;;;17.20;64.60;;;;;;5166971;28;20785;-65
2022/04/23 02:39:40;;;;;;;1.87;1.77;;;17.20;64.60;;;;;;5166128;28;20202;-65
2022/04/23 02:42:33;;;;;;;1.60;1.50;;;17.20;64.60;;;;;;5165727;28;20687;-65
2022/04/23 02:45:27;;;;;;;1.73;1.63;;;17.20;64.60;;;;;;5166132;28;20199;-65
2022/04/23 02:48:20;;;;;;;1.60;1.50;;;17.20;64.70;;;;;;5165860;28;20706;-65
2022/04/23 02:51:15;;;;;;;1.63;1.53;;;17.20;64.60;;;;;;5165810;28;20318;-65
2022/04/23 02:54:07;;;;;;;1.90;1.70;;;17.20;64.60;;;;;;5164882;28;20227;-65
2022/04/23 02:57:00;;;;;;;2.07;1.60;;;17.20;64.60;;;;;;5167050;28;20206;-65
2022/04/23 02:59:52;;;;;;;2.10;1.80;;;17.20;64.70;;;;;;5167297;28;20191;-65
2022/04/23 03:02:46;;;;;;;1.60;1.50;;;17.20;64.60;;;;;;5160057;28;20353;-65
2022/04/23 03:05:41;;;;;;;1.63;1.53;;;17.20;64.60;;;;;;5165045;28;20227;-65
2022/04/23 03:08:37;;;;;;;2.10;1.90;;;17.20;64.50;;;;;;5164527;28;20724;-65
2022/04/23 03:11:30;;;;;;;1.80;1.70;;;17.20;64.60;;;;;;5145818;28;20195;-65
2022/04/23 03:14:22;;;;;;;1.70;1.60;;;17.20;64.60;;;;;;5146527;28;20220;-65
2022/04/23 03:17:14;;;;;;;1.60;1.50;;;17.20;64.60;;;;;;5176836;23;20226;-68
2022/04/23 03:20:09;;;;;;;1.50;1.40;;;17.20;64.60;;;;;;5185408;28;20190;-68
2022/04/23 03:23:03;;;;;;;1.50;1.40;;;17.20;64.60;;;;;;5184342;28;20206;-68
2022/04/23 03:25:55;;;;;;;1.63;1.53;;;17.20;64.60;;;;;;5186420;28;20201;-68
2022/04/23 03:28:47;;;;;;;1.73;1.63;;;17.20;64.60;;;;;;5186024;28;20702;-68
2022/04/23 03:31:39;;;;;;;1.87;1.60;;;17.20;64.50;;;;;;5185076;28;20256;-67
2022/04/23 03:34:31;;;;;;;1.70;1.60;;;17.20;64.50;;;;;;5185657;28;20206;-68
2022/04/23 03:37:25;;;;;;;1.63;1.53;;;17.20;64.60;;;;;;5185206;28;20214;-68
2022/04/23 03:40:18;;;;;;;1.90;1.50;;;17.20;64.60;;;;;;5184890;28;20570;-68
2022/04/23 03:43:10;;;;;;;1.60;1.43;;;17.20;64.50;;;;;;5184241;28;20581;-68
2022/04/23 03:46:02;;;;;;;1.63;1.53;;;17.20;64.50;;;;;;5185211;28;20198;-67
2022/04/23 03:48:54;;;;;;;1.93;1.80;;;17.20;64.50;;;;;;5185104;28;20240;-68
2022/04/23 03:51:46;;;;;;;1.53;1.43;;;17.20;64.50;;;;;;5185696;28;20693;-68
2022/04/23 03:54:39;;;;;;;1.73;1.63;;;17.20;64.50;;;;;;5184611;28;20574;-68
2022/04/23 03:57:42;;;;;;;1.70;1.53;;;17.20;64.50;;;;;;5184535;28;20210;-68
2022/04/23 04:00:35;;;;;;;1.63;1.53;;;17.20;64.50;;;;;;5184560;28;20205;-68
2022/04/23 04:03:27;;;;;;;1.50;1.40;;;17.20;64.60;;;;;;5178363;28;20213;-68
2022/04/23 04:06:19;;;;;;;1.70;1.60;;;17.20;64.50;;;;;;5165884;28;20655;-68
2022/04/23 04:09:12;;;;;;;1.70;1.60;;;17.10;64.50;;;;;;5175825;28;20272;-68
2022/04/23 04:12:06;;;;;;;1.80;1.70;;;17.10;64.50;;;;;;5185094;28;20198;-68
2022/04/23 04:15:00;;;;;;;1.87;1.50;;;17.20;65.10;;;;;;5191615;28;20190;-67
2022/04/23 04:17:52;;;;;;;1.90;1.60;;;17.20;64.60;;;;;;5171994;28;20219;-68
2022/04/23 04:20:48;;;;;;;1.70;1.60;;;17.20;64.60;;;;;;5163082;28;20196;-67
2022/04/23 04:23:40;;;;;;;1.57;1.47;;;17.10;64.60;;;;;;5164184;28;20256;-67
2022/04/23 04:26:33;;;;;;;1.73;1.50;;;17.20;64.60;;;;;;5163099;28;20571;-68
2022/04/23 04:29:27;;;;;;;1.90;1.40;;;17.20;64.60;;;;;;5162776;28;20263;-68
2022/04/23 04:32:21;;;;;;;1.70;1.60;;;17.20;64.40;;;;;;5156992;28;20690;-68
2022/04/23 04:35:13;;;;;;;2.57;1.80;;;17.20;64.50;;;;;;5164695;28;20195;-68
2022/04/23 04:38:06;;;;;;;1.60;1.50;;;17.20;64.40;;;;;;5164182;28;20211;-68
2022/04/23 04:40:58;;;;;;;1.50;1.40;;;17.20;64.40;;;;;;5164042;28;20205;-68
2022/04/23 04:43:50;;;;;;;2.13;1.50;;;17.20;64.40;;;;;;5164637;28;20207;-68
2022/04/23 04:46:42;;;;;;;1.70;1.60;;;17.20;64.30;;;;;;5164369;28;20241;-68
2022/04/23 04:49:35;;;;;;;1.80;1.70;;;17.20;64.20;;;;;;5160540;28;20227;-68
2022/04/23 04:52:28;;;;;;;1.63;1.43;;;17.20;64.30;;;;;;5164272;28;20563;-68
2022/04/23 04:55:20;;;;;;;2.57;1.70;;;17.20;64.20;;;;;;5163934;28;20578;-68
2022/04/23 04:58:12;;;;;;;1.70;1.60;;;17.20;64.20;;;;;;5162474;28;20346;-68
2022/04/23 05:01:04;;;;;;;2.00;1.80;;;17.20;64.30;;;;;;5162706;28;20589;-66
2022/04/23 05:03:57;;;;;;;1.60;1.40;;;17.20;64.20;;;;;;5164320;28;20273;-68
2022/04/23 05:06:50;;;;;;;1.50;1.40;;;17.30;64.20;;;;;;5163372;28;20191;-67
2022/04/23 05:09:42;;;;;;;1.67;1.57;;;17.30;64.20;;;;;;5162019;28;20250;-65
2022/04/23 05:12:34;;;;;;;1.80;1.70;;;17.30;64.20;;;;;;5163446;28;20207;-68
2022/04/23 05:15:26;;;;;;;1.70;1.60;;;17.30;64.20;;;;;;5162259;28;20202;-68
2022/04/23 05:18:19;;;;;;;1.77;1.67;;;17.30;64.20;;;;;;5162413;28;20262;-68
2022/04/23 05:21:12;;;;;;;1.77;1.60;;;17.30;64.20;;;;;;5163307;28;20270;-68
2022/04/23 05:24:06;;;;;;;1.47;1.37;;;17.30;64.20;;;;;;5162111;28;20244;-68
2022/04/23 05:26:58;;;;;;;1.93;1.50;;;17.30;64.20;;;;;;5163652;28;20214;-69
2022/04/23 05:29:50;;;;;;;1.53;1.43;;;17.30;64.20;;;;;;5164676;28;20207;-68
2022/04/23 05:32:42;;;;;;;1.70;1.60;;;17.30;64.20;;;;;;5163003;28;20207;-66
2022/04/23 05:35:35;;;;;;;1.40;1.30;;;17.30;64.10;;;;;;5164428;28;20207;-68
2022/04/23 05:38:27;;;;;;;1.40;1.30;;;17.30;64.20;;;;;;5164815;28;20354;-68
2022/04/23 05:41:20;;;;;;;1.60;1.30;;;17.30;64.20;;;;;;5157916;28;20195;-68
2022/04/23 05:44:13;;;;;;;1.57;1.47;;;17.30;64.10;;;;;;5163910;28;20322;-68
2022/04/23 05:47:05;;;;;;;1.53;1.40;;;17.30;64.10;;;;;;5163590;28;20591;-68
2022/04/23 05:49:57;;;;;;;1.50;1.40;;;17.30;64.10;;;;;;5144602;28;20247;-68
2022/04/23 05:52:49;;;;;;;1.60;1.50;;;17.30;64.10;;;;;;5163493;28;20198;-68
2022/04/23 05:55:41;;;;;;;1.50;1.37;;;17.30;64.00;;;;;;5167079;28;20662;-68
2022/04/23 05:58:36;;;;;;;2.00;1.80;;;17.30;64.00;;;;;;5167721;28;20581;-68
2022/04/23 06:01:28;;;;;;;1.93;1.70;;;17.30;64.60;;;;;;5167330;28;20203;-68
2022/04/23 06:04:20;;;;;;;1.90;1.77;;;17.30;64.00;;;;;;5167042;28;20609;-68
2022/04/23 06:07:12;;;;;;;1.50;1.40;;;17.30;64.60;;;;;;5166564;28;20237;-68
2022/04/23 06:10:06;;;;;;;1.50;1.40;;;17.30;64.00;;;;;;5165831;28;20267;-68
2022/04/23 06:12:58;;;;;;;1.87;1.60;;;17.30;64.00;;;;;;5166866;28;20587;-68
2022/04/23 06:15:51;;;;;;;1.43;1.33;;;17.30;64.00;;;;;;5165353;28;20196;-68
2022/04/23 06:18:43;;;;;;;1.83;1.65;;;17.30;64.00;;;;;;5166644;28;20946;-64
2022/04/23 06:21:35;;;;;;;1.63;1.53;;;17.40;63.70;;;;;;5166352;28;20216;-66
2022/04/23 06:24:27;;;;;;;4.70;4.25;;;17.40;63.20;;;;;;5167452;28;20437;-66
2022/04/23 06:27:20;;;;;;;3.60;3.30;;;17.40;59.60;;;;;;5167793;28;20211;-65
2022/04/23 06:30:12;;;;;;;2.87;2.60;;;17.30;60.00;;;;;;5145490;28;20694;-65
2022/04/23 06:33:06;;;;;;;2.63;2.30;;;17.30;60.30;;;;;;5145315;28;20212;-65
2022/04/23 06:35:58;;;;;;;2.53;2.30;;;17.30;60.90;;;;;;5147032;28;20284;-66
2022/04/23 06:38:50;;;;;;;2.63;2.17;;;17.30;61.30;;;;;;5151379;28;20210;-66
2022/04/23 06:41:42;;;;;;;2.87;2.00;;;17.30;61.80;;;;;;5178462;28;20194;-66
2022/04/23 06:44:35;;;;;;;2.10;1.90;;;17.30;62.00;;;;;;5165590;28;20207;-65
2022/04/23 06:47:27;;;;;;;2.53;2.10;;;17.30;62.20;;;;;;5166593;28;20218;-65
2022/04/23 06:50:20;;;;;;;2.33;2.13;;;17.30;62.40;;;;;;5165539;28;20306;-65
2022/04/23 06:53:12;;;;;;;2.17;1.97;;;17.30;62.50;;;;;;5165055;28;20195;-67
2022/04/23 06:56:05;;;;;;;2.83;2.23;;;17.30;62.60;;;;;;5165122;28;20249;-67
2022/04/23 06:58:57;;;;;;;2.03;1.83;;;17.30;62.70;;;;;;5165772;28;20281;-65
2022/04/23 07:01:49;;;;;;;2.13;1.93;;;17.30;62.80;;;;;;5167139;28;20202;-65
2022/04/23 07:04:41;;;;;;;2.07;1.93;;;17.30;62.90;;;;;;5167299;28;20199;-65
2022/04/23 07:07:35;;;;;;;2.00;1.70;;;17.40;63.10;;;;;;5147357;28;20574;-66
2022/04/23 07:10:28;;;;;;;2.03;1.83;;;17.30;63.00;;;;;;5146155;28;20242;-65
2022/04/23 07:13:20;;;;;;;2.50;1.90;;;17.30;63.10;;;;;;5146952;28;20755;-66
2022/04/23 07:16:14;;;;;;;2.00;1.87;;;17.40;63.20;;;;;;5146659;28;20275;-65
2022/04/23 07:19:07;;;;;;;1.63;1.53;;;17.40;63.20;;;;;;5166476;28;20210;-65
2022/04/23 07:21:59;;;;;;;1.93;1.67;;;17.40;63.30;;;;;;5167315;28;20203;-65
2022/04/23 07:24:53;;;;;;;2.43;1.90;;;17.40;63.20;;;;;;5167450;28;20239;-65
2022/04/23 07:27:45;;;;;;;2.10;1.90;;;17.40;63.20;;;;;;5167088;28;20223;-65
2022/04/23 07:30:38;;;;;;;1.97;1.83;;;17.40;63.30;;;;;;5166919;28;20744;-65
2022/04/23 07:39:49;;;;;;;2.80;1.90;;;17.40;63.50;;;;;;5165968;28;20179;-65
2022/04/23 07:42:43;;;;;;;1.87;1.77;;;17.40;63.30;;;;;;5165754;28;20202;-66
2022/04/23 07:45:35;;;;;;;2.97;2.00;;;17.40;63.30;;;;;;5167049;28;20206;-66
2022/04/23 07:48:27;;;;;;;2.27;2.07;;;17.40;63.30;;;;;;5165788;28;20225;-66
2022/04/23 07:51:20;;;;;;;1.90;1.70;;;17.40;63.30;;;;;;5165441;28;20675;-65
2022/04/23 07:54:12;;;;;;;2.40;1.63;;;17.40;63.30;;;;;;5164762;28;20202;-66
2022/04/23 07:57:06;;;;;;;2.60;1.87;;;17.40;63.30;;;;;;5163604;28;20221;-66
2022/04/23 07:59:59;;;;;;;1.70;1.60;;;17.40;63.30;;;;;;5166449;28;20686;-66
2022/04/23 08:02:52;;;;;;;2.43;1.70;;;17.40;63.40;;;;;;5164260;28;20314;-67
2022/04/23 08:05:44;;;;;;;2.00;1.77;;;17.40;63.40;;;;;;5163015;28;20195;-64
2022/04/23 08:08:36;;;;;;;1.93;1.73;;;17.40;63.30;;;;;;5164789;28;20211;-65
2022/04/23 08:11:28;;;;;;;1.90;1.43;;;17.40;63.30;;;;;;5164096;28;20278;-66
2022/04/23 08:14:20;;;;;;;1.80;1.70;;;17.40;63.30;;;;;;5164057;28;20273;-65
2022/04/23 08:17:14;;;;;;;2.33;1.73;;;17.40;63.30;;;;;;5162320;28;20227;-66
2022/04/23 08:20:07;;;;;;;2.20;2.00;;;17.40;63.30;;;;;;5166227;28;20566;-66
2022/04/23 08:22:59;;;;;;;2.87;1.63;;;17.40;63.30;;;;;;5166138;28;20203;-66
2022/04/23 08:25:55;;;;;;;2.67;2.00;;;17.40;63.30;;;;;;5164882;28;20675;-65
2022/04/23 08:31:57;;;;;;;1.73;1.60;;;17.40;63.30;;;;;;5163544;28;20221;-67
2022/04/23 08:34:51;;;;;;;1.80;1.70;;;17.40;63.30;;;;;;5164758;28;20277;-66
2022/04/23 08:37:43;;;;;;;3.37;1.60;;;17.40;63.30;;;;;;5165916;28;20272;-65
2022/04/23 08:40:38;;;;;;;1.73;1.63;;;17.40;63.30;;;;;;5164860;28;20195;-65
2022/04/23 08:43:30;;;;;;;1.60;1.50;;;17.40;63.30;;;;;;5165857;28;20206;-66
2022/04/23 08:46:22;;;;;;;1.80;1.70;;;17.40;63.30;;;;;;5163511;28;20209;-65
2022/04/23 08:49:16;;;;;;;3.63;1.60;;;17.40;63.30;;;;;;5163856;28;20238;-66
2022/04/23 08:52:16;;;;;;;1.70;1.53;;;17.40;63.30;;;;;;5162590;28;20190;-65
2022/04/23 08:55:11;;;;;;;2.47;1.87;;;17.40;63.30;;;;;;5163023;28;20663;-65
2022/04/23 08:58:03;;;;;;;2.07;1.70;;;17.40;63.30;;;;;;5162501;28;20299;-65
2022/04/23 09:00:56;;;;;;;2.57;1.70;;;17.40;63.30;;;;;;5164263;28;20196;-66
2022/04/23 09:03:48;;;;;;;2.10;1.90;;;17.40;63.30;;;;;;5164040;28;20693;-66
2022/04/23 09:06:43;;;;;;;3.40;1.53;;;17.40;63.20;;;;;;5162724;28;20662;-66
2022/04/23 09:09:48;;;;;;;2.30;1.80;;;17.40;63.20;;;;;;5164088;28;20215;-66
2022/04/23 09:12:56;;;;;;;1.43;1.30;;;17.40;63.20;;;;;;5156995;28;20333;-66
2022/04/23 09:25:32;;;;;;;1.70;1.60;;;17.40;63.20;;;;;;5126912;28;20736;-59
2022/04/23 09:28:27;;;;;;;1.77;1.47;;;17.40;63.20;;;;;;5202516;28;20217;-60
2022/04/23 09:31:19;;;;;;;2.00;1.80;;;17.40;63.10;;;;;;5197217;28;20260;-59
2022/04/23 09:34:16;;;;;;;1.90;1.70;;;17.40;63.10;;;;;;5196811;28;20190;-59
2022/04/23 09:37:09;;;;;;;1.60;1.50;;;17.40;63.10;;;;;;5203692;28;20194;-59
2022/04/23 09:40:01;;;;;;;1.40;1.30;;;17.40;63.10;;;;;;5183282;28;20194;-59
2022/04/23 09:43:00;;;;;;;1.67;1.57;;;17.40;63.10;;;;;;5182959;28;20202;-58
2022/04/23 09:46:00;;;;;;;1.70;1.60;;;17.40;63.10;;;;;;5206607;28;20201;-60
2022/04/23 09:49:03;;;;;;;3.27;1.50;;;17.40;63.10;;;;;;5201315;28;20252;-60
2022/04/23 09:52:00;;;;;;;1.87;1.53;;;17.40;63.00;;;;;;5203852;28;20193;-60
2022/04/23 09:54:54;;;;;;;1.50;1.40;;;17.40;62.90;;;;;;5203818;28;20201;-59
2022/04/23 09:57:48;;;;;;;2.00;1.80;;;17.40;62.90;;;;;;5203545;28;20229;-60
2022/04/23 10:00:43;;;;;;;2.27;1.50;;;17.40;62.90;;;;;;5199320;28;20653;-60
2022/04/23 10:03:35;;;;;;;1.90;1.70;;;17.40;62.50;;;;;;5203846;28;20217;-60
2022/04/23 10:06:27;;;;;;;2.17;1.87;;;17.40;62.80;;;;;;5184460;28;20194;-59
2022/04/23 10:09:22;;;;;;;1.97;1.63;;;17.40;62.80;;;;;;5196532;28;20307;-59
2022/04/23 10:12:21;;;;;;;1.73;1.60;;;17.40;62.80;;;;;;5196031;28;20273;-59
2022/04/23 10:15:14;;;;;;;1.60;1.40;;;17.40;62.80;;;;;;5183705;28;20191;-59
2022/04/23 10:18:09;;;;;;;1.70;1.60;;;17.40;62.80;;;;;;5199163;28;20222;-59
2022/04/23 10:21:08;;;;;;;1.50;1.40;;;17.40;62.80;;;;;;5203327;28;20552;-59
2022/04/23 10:24:07;;;;;;;1.50;1.40;;;17.40;62.80;;;;;;5203219;28;20696;-58
2022/04/23 10:27:06;;;;;;;1.50;1.40;;;17.40;62.80;;;;;;5202069;28;20198;-60
2022/04/23 10:30:02;;;;;;;2.00;1.53;;;17.40;62.80;;;;;;5203784;28;20295;-59
2022/04/23 10:32:54;;;;;;;1.80;1.70;;;17.40;62.80;;;;;;5182487;28;20229;-60
2022/04/23 10:36:03;;;;;;;1.63;1.53;;;17.40;62.80;;;;;;5185357;28;20205;-60
2022/04/23 10:39:19;;;;;;;1.40;1.30;;;17.40;62.80;;;;;;5203102;28;20782;-59
2022/04/23 10:42:15;;;;;;;1.60;1.40;;;17.40;62.80;;;;;;5206537;28;20202;-59
2022/04/23 10:45:14;;;;;;;3.20;1.80;;;17.40;62.80;;;;;;5206735;28;20687;-60
2022/04/23 10:48:27;;;;;;;1.90;1.80;;;17.40;62.80;;;;;;5205693;28;20406;-59
2022/04/23 10:51:21;;;;;;;2.80;1.60;;;17.50;62.10;;;;;;5205639;28;20222;-59
2022/04/23 10:54:16;;;;;;;2.23;1.70;;;17.50;62.20;;;;;;5206634;28;20189;-59
2022/04/23 10:57:09;;;;;;;2.83;1.60;;;17.50;62.20;;;;;;5206509;28;20545;-59
2022/04/23 11:00:10;;;;;;;1.70;1.60;;;17.40;62.10;;;;;;5186871;28;20189;-60
2022/04/23 11:03:08;;;;;;;2.10;1.57;;;17.40;62.10;;;;;;5193428;28;20251;-59
2022/04/23 11:12:55;;;;;;;2.23;1.70;;;17.40;62.30;;;;;;5204310;28;20194;-59
2022/04/23 11:16:13;;;;;;;2.03;1.60;;;17.40;62.40;;;;;;5206439;28;20554;-59
2022/04/23 11:19:07;;;;;;;1.60;1.30;;;17.40;62.40;;;;;;5188487;28;20398;-59
2022/04/23 11:22:00;;;;;;;1.50;1.40;;;17.40;62.50;;;;;;5203801;28;20197;-58
2022/04/23 11:24:54;;;;;;;1.50;1.40;;;17.40;62.50;;;;;;5204118;28;20205;-59
2022/04/23 11:27:48;;;;;;;2.00;1.57;;;17.40;62.60;;;;;;5203228;28;20233;-58
2022/04/23 11:30:40;;;;;;;1.73;1.63;;;17.40;62.60;;;;;;5204281;28;20213;-58
2022/04/23 11:33:32;;;;;;;3.20;1.63;;;17.40;62.60;;;;;;5203293;28;20664;-58
2022/04/23 11:36:29;;;;;;;2.20;1.60;;;17.40;62.60;;;;;;5203052;28;20194;-58
2022/04/23 11:39:27;;;;;;;2.03;1.60;;;17.40;62.50;;;;;;5185223;28;20210;-58
2022/04/23 11:42:35;;;;;;;1.80;1.67;;;17.40;62.50;;;;;;5205288;28;20198;-59
2022/04/23 11:45:27;;;;;;;3.70;1.83;;;17.40;62.50;;;;;;5205125;28;20190;-59
2022/04/23 11:48:19;;;;;;;2.73;1.50;;;17.40;62.40;;;;;;5205189;28;20220;-59
2022/04/23 11:51:13;;;;;;;3.00;2.10;;;17.40;62.40;;;;;;5193107;28;20703;-58
2022/04/23 11:54:05;;;;;;;3.07;1.70;;;17.40;62.30;;;;;;5204126;28;20197;-58
2022/04/23 11:56:57;;;;;;;2.80;1.87;;;17.40;62.20;;;;;;5203290;28;20186;-59
2022/04/23 11:59:50;;;;;;;1.67;1.57;;;17.40;62.20;;;;;;5203576;28;20214;-59
2022/04/23 12:02:46;;;;;;;2.80;1.80;;;17.40;62.20;;;;;;5205164;28;20205;-59
2022/04/23 12:05:38;;;;;;;2.57;1.60;;;17.40;62.10;;;;;;5200338;28;20204;-58
2022/04/23 12:08:30;;;;;;;3.60;1.90;;;17.40;62.10;;;;;;5194363;28;20218;-58
2022/04/23 12:11:26;;;;;;;2.03;1.77;;;17.40;62.10;;;;;;5184448;28;20718;-59
2022/04/23 12:14:18;;;;;;;3.57;2.50;;;17.40;62.00;;;;;;5184248;28;20269;-58
2022/04/23 12:17:12;;;;;;;2.40;2.10;;;17.40;62.00;;;;;;5184264;28;20670;-58
2022/04/23 12:20:10;;;;;;;2.70;2.13;;;17.40;62.00;;;;;;5199686;28;20195;-58
2022/04/23 12:23:05;;;;;;;2.90;2.00;;;17.40;62.00;;;;;;5201383;28;20199;-59
2022/04/23 12:26:08;;;;;;;2.30;1.90;;;17.40;62.00;;;;;;5211717;28;20201;-56
2022/04/23 12:41:56;;;;;;;4.00;2.03;;;17.40;62.30;;;;;;5200614;28;20185;-58
2022/04/23 12:44:51;;;;;;;3.57;2.13;;;17.30;62.30;;;;;;5204464;28;20324;-59
2022/04/23 12:47:44;;;;;;;5.07;2.23;;;17.40;62.40;;;;;;5204604;28;20244;-59
2022/04/23 12:50:36;;;;;;;3.73;2.40;;;17.40;62.40;;;;;;5204122;28;20216;-59
2022/04/23 12:53:36;;;;;;;2.80;1.97;;;17.40;62.40;;;;;;5205005;28;20201;-58
2022/04/23 12:56:35;;;;;;;3.00;2.07;;;17.40;62.30;;;;;;5204733;28;20198;-58
2022/04/23 12:59:27;;;;;;;2.17;1.73;;;17.40;62.30;;;;;;5203494;28;20210;-59
2022/04/23 13:02:19;;;;;;;2.93;1.90;;;17.30;62.20;;;;;;5201362;28;20558;-58
2022/04/23 13:05:13;;;;;;;2.90;1.90;;;17.40;62.30;;;;;;5195664;28;20225;-59
2022/04/23 13:11:28;;;;;;;3.50;2.30;;;17.40;62.30;;;;;;5207488;28;20256;-59
2022/04/23 13:14:20;;;;;;;3.77;2.33;;;17.40;62.40;;;;;;5204582;28;20198;-59
2022/04/23 13:17:12;;;;;;;3.97;2.03;;;17.40;62.40;;;;;;5202417;28;20198;-59
2022/04/23 13:20:05;;;;;;;2.70;2.00;;;17.30;62.40;;;;;;5202541;28;20198;-57
2022/04/23 13:22:59;;;;;;;3.40;2.07;;;17.40;62.40;;;;;;5203613;28;20201;-58
2022/04/23 13:25:51;;;;;;;3.33;2.40;;;17.40;62.50;;;;;;5201586;28;20700;-58
2022/04/23 13:28:43;;;;;;;2.33;2.10;;;17.40;62.60;;;;;;5201668;28;20213;-58
2022/04/23 13:31:39;;;;;;;2.90;2.20;;;17.40;62.60;;;;;;5201365;28;20317;-57
2022/04/23 13:34:31;;;;;;;2.47;2.10;;;17.40;62.60;;;;;;5202794;28;20221;-59
2022/04/23 13:37:23;;;;;;;3.33;2.10;;;17.40;62.50;;;;;;5197646;28;20190;-58
2022/04/23 13:40:17;;;;;;;3.80;2.10;;;17.40;62.60;;;;;;5203378;28;20693;-59
2022/04/23 13:43:09;;;;;;;2.50;1.77;;;17.40;62.70;;;;;;5203504;28;20193;-58
2022/04/23 13:46:01;;;;;;;2.80;2.10;;;17.40;62.70;;;;;;5203436;28;20657;-59
2022/04/23 13:48:55;;;;;;;4.03;1.67;;;17.30;62.60;;;;;;5206103;28;20308;-59
2022/04/23 13:51:48;;;;;;;2.00;1.80;;;17.30;62.60;;;;;;5203143;28;20224;-59
2022/04/23 13:54:40;;;;;;;2.33;1.80;;;17.40;62.70;;;;;;5203764;28;20217;-58
2022/04/23 13:57:33;;;;;;;2.63;2.00;;;17.30;62.60;;;;;;5203689;28;20198;-58
2022/04/23 14:00:25;;;;;;;3.53;1.90;;;17.40;62.70;;;;;;5203550;28;20794;-58
2022/04/23 14:10:07;;;;;;;2.37;2.17;;;17.40;62.60;;;;;;5202608;28;20624;-58
2022/04/23 14:13:01;;;;;;;2.60;1.90;;;17.40;62.60;;;;;;5202100;28;20224;-58
2022/04/23 14:15:53;;;;;;;3.23;1.83;;;17.40;62.60;;;;;;5206722;28;20574;-58
2022/04/23 14:18:45;;;;;;;2.67;1.93;;;17.40;62.60;;;;;;5206364;28;20736;-59
2022/04/23 14:21:38;;;;;;;2.10;1.90;;;17.40;62.60;;;;;;5206667;28;20688;-59
2022/04/23 14:24:31;;;;;;;2.67;1.90;;;17.40;62.60;;;;;;5207166;28;20589;-60
2022/04/23 14:27:23;;;;;;;2.73;2.00;;;17.30;62.60;;;;;;5206678;28;20204;-59
2022/04/23 14:30:17;;;;;;;2.10;1.90;;;17.30;62.60;;;;;;5206383;28;20194;-59
2022/04/23 14:33:09;;;;;;;2.97;2.20;;;17.30;62.60;;;;;;5185762;28;20202;-59
2022/04/23 14:36:01;;;;;;;2.60;1.70;;;17.40;62.70;;;;;;5198287;28;20193;-59
2022/04/23 14:38:55;;;;;;;2.23;1.90;;;17.30;62.60;;;;;;5206209;28;20214;-59
2022/04/23 14:41:47;;;;;;;2.10;1.90;;;17.40;62.70;;;;;;5206336;28;20221;-59
2022/04/23 14:44:39;;;;;;;4.20;2.33;;;17.40;62.70;;;;;;5189913;28;20202;-58
2022/04/23 14:47:33;;;;;;;2.10;1.90;;;17.40;62.70;;;;;;5187599;28;20209;-59
2022/04/23 14:50:25;;;;;;;1.50;1.40;;;17.30;62.60;;;;;;5186219;28;20597;-59
2022/04/23 14:53:18;;;;;;;1.97;1.77;;;17.30;62.60;;;;;;5186310;28;20199;-59
2022/04/23 14:56:10;;;;;;;2.43;2.00;;;17.40;62.70;;;;;;5186943;28;20194;-59
2022/04/23 14:59:03;;;;;;;1.90;1.80;;;17.40;63.30;;;;;;5187001;28;20241;-59
2022/04/23 15:01:55;;;;;;;1.93;1.73;;;17.30;62.60;;;;;;5185846;28;20195;-59
2022/04/23 15:04:48;;;;;;;2.37;2.13;;;17.30;62.70;;;;;;5186255;28;20255;-59
2022/04/23 15:07:40;;;;;;;2.80;2.27;;;17.40;62.80;;;;;;5185244;28;20194;-59
2022/04/23 15:10:32;;;;;;;3.23;2.00;;;17.30;62.70;;;;;;5185699;28;20736;-58
2022/04/23 15:13:24;;;;;;;1.83;1.70;;;17.30;62.70;;;;;;5186643;28;20585;-59
2022/04/23 15:16:17;;;;;;;1.93;1.60;;;17.30;62.70;;;;;;5200669;28;20484;-59
2022/04/23 15:19:09;;;;;;;1.80;1.70;;;17.30;62.70;;;;;;5228334;23;20481;-66
2022/04/23 15:22:04;;;;;;;2.20;2.00;;;17.30;62.70;;;;;;5200412;28;20194;-66
2022/04/23 15:24:56;;;;;;;1.60;1.50;;;17.40;62.80;;;;;;5202645;28;20198;-66
2022/04/23 15:27:54;;;;;;;1.73;1.60;;;17.40;62.80;;;;;;5202796;28;20581;-67
2022/04/23 15:30:46;;;;;;;2.13;1.80;;;17.30;62.70;;;;;;5182138;28;20214;-64
2022/04/23 15:33:39;;;;;;;1.73;1.63;;;17.40;62.80;;;;;;5182364;28;20586;-64
2022/04/23 15:36:31;;;;;;;2.37;1.80;;;17.30;62.70;;;;;;5182294;28;20194;-64
2022/04/23 15:39:25;;;;;;;2.67;1.67;;;17.40;62.80;;;;;;5182180;28;20222;-64
2022/04/23 15:42:17;;;;;;;1.80;1.70;;;17.30;62.70;;;;;;5182838;28;20199;-64
2022/04/23 15:45:09;;;;;;;1.73;1.63;;;17.30;62.60;;;;;;5182777;28;20202;-64
2022/04/23 15:48:03;;;;;;;2.10;1.90;;;17.30;62.60;;;;;;5180362;28;20285;-64
2022/04/23 15:50:55;;;;;;;1.67;1.57;;;17.40;62.60;;;;;;5183763;28;20301;-63
2022/04/23 15:53:47;;;;;;;1.77;1.67;;;17.30;62.50;;;;;;5185057;28;20206;-64